createdAt,value
2019-01-17T00:00:03.384Z,791.21
2019-01-17T00:00:07.669Z,791.23
2019-01-17T00:00:11.956Z,791.23
2019-01-17T00:00:16.250Z,791.24
2019-01-17T00:00:20.539Z,791.24
2019-01-17T00:00:24.731Z,791.21
2019-01-17T00:00:29.016Z,791.28
2019-01-17T00:00:33.106Z,791.25
2019-01-17T00:00:37.398Z,791.27
2019-01-17T00:00:41.697Z,791.27
2019-01-17T00:00:45.885Z,791.28
2019-01-17T00:00:50.171Z,791.25
2019-01-17T00:00:54.358Z,791.3
2019-01-17T00:00:58.641Z,791.24
2019-01-17T00:01:02.930Z,791.26
2019-01-17T00:01:07.218Z,791.28
2019-01-17T00:01:11.412Z,791.25
2019-01-17T00:01:15.702Z,791.27
2019-01-17T00:01:19.897Z,791.26
2019-01-17T00:01:25.569Z,791.3
2019-01-17T00:01:29.757Z,791.29
2019-01-17T00:01:33.946Z,791.25
2019-01-17T00:01:38.233Z,791.26
2019-01-17T00:01:42.525Z,791.22
2019-01-17T00:01:46.720Z,791.19
2019-01-17T00:01:51.010Z,791.26
2019-01-17T00:01:55.292Z,791.28
2019-01-17T00:01:59.584Z,791.24
2019-01-17T00:02:03.876Z,791.3
2019-01-17T00:02:08.171Z,791.29
2019-01-17T00:02:12.460Z,791.32
2019-01-17T00:02:16.749Z,791.24
2019-01-17T00:02:21.054Z,791.27
2019-01-17T00:02:25.337Z,791.3
2019-01-17T00:02:29.633Z,791.25
2019-01-17T00:02:33.819Z,791.27
2019-01-17T00:02:38.108Z,791.3
2019-01-17T00:02:42.399Z,791.27
2019-01-17T00:02:46.696Z,791.33
2019-01-17T00:02:50.989Z,791.26
2019-01-17T00:02:55.276Z,791.3
2019-01-17T00:02:59.566Z,791.29
2019-01-17T00:03:03.953Z,791.3
2019-01-17T00:03:08.237Z,791.25
2019-01-17T00:03:12.428Z,791.28
2019-01-17T00:03:16.722Z,791.24
2019-01-17T00:03:20.822Z,791.31
2019-01-17T00:03:25.103Z,791.27
2019-01-17T00:03:29.389Z,791.25
2019-01-17T00:03:33.676Z,791.23
2019-01-17T00:03:37.963Z,791.21
2019-01-17T00:03:42.284Z,791.28
2019-01-17T00:03:46.571Z,791.23
2019-01-17T00:03:50.860Z,791.25
2019-01-17T00:03:55.149Z,791.25
2019-01-17T00:03:59.442Z,791.22
2019-01-17T00:04:03.726Z,791.21
2019-01-17T00:04:08.010Z,791.24
2019-01-17T00:04:12.197Z,791.24
2019-01-17T00:04:16.483Z,791.24
2019-01-17T00:04:20.674Z,791.26
2019-01-17T00:04:24.965Z,791.22
2019-01-17T00:04:29.266Z,791.24
2019-01-17T00:04:33.552Z,791.21
2019-01-17T00:04:37.750Z,791.21
2019-01-17T00:04:42.048Z,791.22
2019-01-17T00:04:46.335Z,791.22
2019-01-17T00:04:50.623Z,791.23
2019-01-17T00:04:54.919Z,791.25
2019-01-17T00:04:59.218Z,791.21
2019-01-17T00:05:03.520Z,791.22
2019-01-17T00:05:07.806Z,791.28
2019-01-17T00:05:12.092Z,791.18
2019-01-17T00:05:16.377Z,791.2
2019-01-17T00:05:20.671Z,791.17
2019-01-17T00:05:24.862Z,791.16
2019-01-17T00:05:29.156Z,791.12
2019-01-17T00:05:33.447Z,791.11
2019-01-17T00:05:37.735Z,791.19
2019-01-17T00:05:42.022Z,791.2
2019-01-17T00:05:46.309Z,791.16
2019-01-17T00:05:50.592Z,791.17
2019-01-17T00:05:54.881Z,791.17
2019-01-17T00:05:59.179Z,791.19
2019-01-17T00:06:03.466Z,791.19
2019-01-17T00:06:07.753Z,791.18
2019-01-17T00:06:11.855Z,791.21
2019-01-17T00:06:16.142Z,791.25
2019-01-17T00:06:20.347Z,791.18
2019-01-17T00:06:24.638Z,791.23
2019-01-17T00:06:28.929Z,791.22
2019-01-17T00:06:33.222Z,791.19
2019-01-17T00:06:37.547Z,791.18
2019-01-17T00:06:41.854Z,791.2
2019-01-17T00:06:46.152Z,791.21
2019-01-17T00:06:50.342Z,791.19
2019-01-17T00:06:54.628Z,791.21
2019-01-17T00:06:58.916Z,791.21
2019-01-17T00:07:03.103Z,791.18
2019-01-17T00:07:07.392Z,791.18
2019-01-17T00:07:11.674Z,791.16
2019-01-17T00:07:15.866Z,791.23
2019-01-17T00:07:20.161Z,791.18
2019-01-17T00:07:24.356Z,791.23
2019-01-17T00:07:28.649Z,791.22
2019-01-17T00:07:32.947Z,791.21
2019-01-17T00:07:37.238Z,791.21
2019-01-17T00:07:41.520Z,791.18
2019-01-17T00:07:45.807Z,791.2
2019-01-17T00:07:50.094Z,791.19
2019-01-17T00:07:54.382Z,791.21
2019-01-17T00:07:58.667Z,791.12
2019-01-17T00:08:02.952Z,791.09
2019-01-17T00:08:07.237Z,791.06
2019-01-17T00:08:11.522Z,791
2019-01-17T00:08:15.715Z,791.03
2019-01-17T00:08:20.001Z,791.02
2019-01-17T00:08:24.291Z,790.97
2019-01-17T00:08:28.582Z,790.95
2019-01-17T00:08:32.873Z,790.95
2019-01-17T00:08:37.168Z,790.97
2019-01-17T00:08:41.395Z,790.95
2019-01-17T00:08:45.684Z,790.94
2019-01-17T00:08:49.874Z,790.93
2019-01-17T00:08:54.166Z,790.92
2019-01-17T00:08:58.456Z,790.97
2019-01-17T00:09:02.743Z,790.96
2019-01-17T00:09:07.027Z,790.94
2019-01-17T00:09:11.218Z,790.9
2019-01-17T00:09:15.509Z,790.95
2019-01-17T00:09:19.838Z,790.96
2019-01-17T00:09:24.130Z,790.96
2019-01-17T00:09:28.427Z,791
2019-01-17T00:09:32.714Z,790.96
2019-01-17T00:09:36.801Z,790.97
2019-01-17T00:09:41.083Z,790.97
2019-01-17T00:09:45.273Z,790.99
2019-01-17T00:09:49.556Z,791.02
2019-01-17T00:09:53.746Z,790.99
2019-01-17T00:09:58.033Z,790.96
2019-01-17T00:10:02.629Z,791.01
2019-01-17T00:10:06.919Z,791.03
2019-01-17T00:10:11.208Z,790.98
2019-01-17T00:10:15.494Z,791.01
2019-01-17T00:10:19.783Z,791.03
2019-01-17T00:10:24.076Z,790.98
2019-01-17T00:10:28.365Z,791
2019-01-17T00:10:32.564Z,790.97
2019-01-17T00:10:36.877Z,790.98
2019-01-17T00:10:41.170Z,791
2019-01-17T00:10:45.453Z,790.95
2019-01-17T00:10:49.741Z,791.02
2019-01-17T00:10:54.027Z,790.99
2019-01-17T00:10:58.317Z,791.05
2019-01-17T00:11:02.710Z,791.02
2019-01-17T00:11:07.043Z,791
2019-01-17T00:11:11.233Z,791.01
2019-01-17T00:11:15.558Z,790.93
2019-01-17T00:11:19.848Z,791
2019-01-17T00:11:24.137Z,791.02
2019-01-17T00:11:28.426Z,791.02
2019-01-17T00:11:32.715Z,791.03
2019-01-17T00:11:37.000Z,791.01
2019-01-17T00:11:41.295Z,791.02
2019-01-17T00:11:45.580Z,791.1
2019-01-17T00:11:49.863Z,791.12
2019-01-17T00:11:53.956Z,791.15
2019-01-17T00:11:58.247Z,791.17
2019-01-17T00:12:02.441Z,791.17
2019-01-17T00:12:06.737Z,791.2
2019-01-17T00:12:10.923Z,791.23
2019-01-17T00:12:15.215Z,791.25
2019-01-17T00:12:19.516Z,791.21
2019-01-17T00:12:23.802Z,791.28
2019-01-17T00:12:27.988Z,791.3
2019-01-17T00:12:32.276Z,791.3
2019-01-17T00:12:36.566Z,791.35
2019-01-17T00:12:40.873Z,791.35
2019-01-17T00:12:45.158Z,791.36
2019-01-17T00:12:49.353Z,791.34
2019-01-17T00:12:53.442Z,791.34
2019-01-17T00:12:57.722Z,791.33
2019-01-17T00:13:02.113Z,791.37
2019-01-17T00:13:06.301Z,791.36
2019-01-17T00:13:10.590Z,791.3
2019-01-17T00:13:14.778Z,791.26
2019-01-17T00:13:19.061Z,791.26
2019-01-17T00:13:23.342Z,791.27
2019-01-17T00:13:27.525Z,791.2
2019-01-17T00:13:31.804Z,791.17
2019-01-17T00:13:36.090Z,791.23
2019-01-17T00:13:40.374Z,791.21
2019-01-17T00:13:44.663Z,791.17
2019-01-17T00:13:48.949Z,791.14
2019-01-17T00:13:53.237Z,791.18
2019-01-17T00:13:57.442Z,791.22
2019-01-17T00:14:01.736Z,791.18
2019-01-17T00:14:06.025Z,791.17
2019-01-17T00:14:10.318Z,791.2
2019-01-17T00:14:14.602Z,791.14
2019-01-17T00:14:18.792Z,791.14
2019-01-17T00:14:23.081Z,791.15
2019-01-17T00:14:27.377Z,791.14
2019-01-17T00:14:31.665Z,791.12
2019-01-17T00:14:35.959Z,791.11
2019-01-17T00:14:40.249Z,791.12
2019-01-17T00:14:44.536Z,791.11
2019-01-17T00:14:48.822Z,791.1
2019-01-17T00:14:53.106Z,791.12
2019-01-17T00:14:57.392Z,791.1
2019-01-17T00:15:01.676Z,791.12
2019-01-17T00:15:05.876Z,791.09
2019-01-17T00:15:10.163Z,791.1
2019-01-17T00:15:14.450Z,791.09
2019-01-17T00:15:18.783Z,791.12
2019-01-17T00:15:23.074Z,791.13
2019-01-17T00:15:27.363Z,791.17
2019-01-17T00:15:31.651Z,791.16
2019-01-17T00:15:35.936Z,791.1
2019-01-17T00:15:40.266Z,791.11
2019-01-17T00:15:44.550Z,791.1
2019-01-17T00:15:48.837Z,791.11
2019-01-17T00:15:53.134Z,791.15
2019-01-17T00:15:57.417Z,791.16
2019-01-17T00:16:01.706Z,791.23
2019-01-17T00:16:05.993Z,791.26
2019-01-17T00:16:10.179Z,791.19
2019-01-17T00:16:15.462Z,791.13
2019-01-17T00:16:19.652Z,791.13
2019-01-17T00:16:23.935Z,791.16
2019-01-17T00:16:28.228Z,791.14
2019-01-17T00:16:32.514Z,791.12
2019-01-17T00:16:36.808Z,791.1
2019-01-17T00:16:41.093Z,791.1
2019-01-17T00:16:45.184Z,791.11
2019-01-17T00:16:49.465Z,791.05
2019-01-17T00:16:53.752Z,791.07
2019-01-17T00:16:58.043Z,791.1
2019-01-17T00:17:02.385Z,791.19
2019-01-17T00:17:06.671Z,791.12
2019-01-17T00:17:10.960Z,791.12
2019-01-17T00:17:15.253Z,791.11
2019-01-17T00:17:19.579Z,791.12
2019-01-17T00:17:23.770Z,791.13
2019-01-17T00:17:28.066Z,791.13
2019-01-17T00:17:32.352Z,791.19
2019-01-17T00:17:36.587Z,791.17
2019-01-17T00:17:40.884Z,791.15
2019-01-17T00:17:45.222Z,791.18
2019-01-17T00:17:49.514Z,791.14
2019-01-17T00:17:53.807Z,791.13
2019-01-17T00:17:58.097Z,791.18
2019-01-17T00:18:02.535Z,791.2
2019-01-17T00:18:06.825Z,791.15
2019-01-17T00:18:11.012Z,791.2
2019-01-17T00:18:15.300Z,791.18
2019-01-17T00:18:19.585Z,791.17
2019-01-17T00:18:23.913Z,791.19
2019-01-17T00:18:28.203Z,791.2
2019-01-17T00:18:32.493Z,791.21
2019-01-17T00:18:36.779Z,791.16
2019-01-17T00:18:41.081Z,791.17
2019-01-17T00:18:45.367Z,791.15
2019-01-17T00:18:49.650Z,791.09
2019-01-17T00:18:53.934Z,791.16
2019-01-17T00:18:58.225Z,791.15
2019-01-17T00:19:02.522Z,791.11
2019-01-17T00:19:06.714Z,791.11
2019-01-17T00:19:10.997Z,791.1
2019-01-17T00:19:15.186Z,791.13
2019-01-17T00:19:19.424Z,791.09
2019-01-17T00:19:23.527Z,791.12
2019-01-17T00:19:27.824Z,791.08
2019-01-17T00:19:32.114Z,791.11
2019-01-17T00:19:36.400Z,791.09
2019-01-17T00:19:40.690Z,791.09
2019-01-17T00:19:44.974Z,791.08
2019-01-17T00:19:49.263Z,791.04
2019-01-17T00:19:53.544Z,790.98
2019-01-17T00:19:57.832Z,791.03
2019-01-17T00:20:02.129Z,791.01
2019-01-17T00:20:06.421Z,791.03
2019-01-17T00:20:10.713Z,791.03
2019-01-17T00:20:14.903Z,791.05
2019-01-17T00:20:19.193Z,791.06
2019-01-17T00:20:23.385Z,791.08
2019-01-17T00:20:27.674Z,791.06
2019-01-17T00:20:31.866Z,791.06
2019-01-17T00:20:36.053Z,791.06
2019-01-17T00:20:40.338Z,791.09
2019-01-17T00:20:44.622Z,791.03
2019-01-17T00:20:48.950Z,791.04
2019-01-17T00:20:53.264Z,791.05
2019-01-17T00:20:57.562Z,791.06
2019-01-17T00:21:01.849Z,791.06
2019-01-17T00:21:06.043Z,790.99
2019-01-17T00:21:10.332Z,791.01
2019-01-17T00:21:14.622Z,791.03
2019-01-17T00:21:18.712Z,791.03
2019-01-17T00:21:22.906Z,791.06
2019-01-17T00:21:27.196Z,790.99
2019-01-17T00:21:31.389Z,791
2019-01-17T00:21:35.671Z,790.93
2019-01-17T00:21:39.867Z,791
2019-01-17T00:21:44.154Z,790.98
2019-01-17T00:21:48.343Z,790.95
2019-01-17T00:21:52.534Z,790.96
2019-01-17T00:21:56.826Z,790.98
2019-01-17T00:22:01.111Z,790.98
2019-01-17T00:22:05.398Z,790.98
2019-01-17T00:22:09.693Z,790.98
2019-01-17T00:22:14.019Z,790.94
2019-01-17T00:22:18.303Z,790.99
2019-01-17T00:22:22.584Z,791
2019-01-17T00:22:26.871Z,790.93
2019-01-17T00:22:31.165Z,790.96
2019-01-17T00:22:35.357Z,790.93
2019-01-17T00:22:39.645Z,790.91
2019-01-17T00:22:43.935Z,790.92
2019-01-17T00:22:48.222Z,790.88
2019-01-17T00:22:52.410Z,790.86
2019-01-17T00:22:56.693Z,790.91
2019-01-17T00:23:00.987Z,790.88
2019-01-17T00:23:06.085Z,790.91
2019-01-17T00:23:10.377Z,790.84
2019-01-17T00:23:14.670Z,790.91
2019-01-17T00:23:18.966Z,790.91
2019-01-17T00:23:23.154Z,790.83
2019-01-17T00:23:27.452Z,790.86
2019-01-17T00:23:31.745Z,790.86
2019-01-17T00:23:36.037Z,790.86
2019-01-17T00:23:40.045Z,790.81
2019-01-17T00:23:44.340Z,790.84
2019-01-17T00:23:48.629Z,790.85
2019-01-17T00:23:52.835Z,790.82
2019-01-17T00:24:03.469Z,790.84
2019-01-17T00:24:07.756Z,790.83
2019-01-17T00:24:12.047Z,790.8
2019-01-17T00:24:16.339Z,790.78
2019-01-17T00:24:20.630Z,790.8
2019-01-17T00:24:24.824Z,790.77
2019-01-17T00:24:29.108Z,790.84
2019-01-17T00:24:33.393Z,790.82
2019-01-17T00:24:37.579Z,790.79
2019-01-17T00:24:41.866Z,790.78
2019-01-17T00:24:46.168Z,790.76
2019-01-17T00:24:50.456Z,790.78
2019-01-17T00:24:54.746Z,790.75
2019-01-17T00:24:59.036Z,790.76
2019-01-17T00:25:03.337Z,790.78
2019-01-17T00:25:07.629Z,790.8
2019-01-17T00:25:11.924Z,790.8
2019-01-17T00:25:16.121Z,790.78
2019-01-17T00:25:20.315Z,790.79
2019-01-17T00:25:24.606Z,790.75
2019-01-17T00:25:28.896Z,790.79
2019-01-17T00:25:33.190Z,790.76
2019-01-17T00:25:37.474Z,790.79
2019-01-17T00:25:41.765Z,790.76
2019-01-17T00:25:46.087Z,790.74
2019-01-17T00:25:50.374Z,790.77
2019-01-17T00:25:54.667Z,790.78
2019-01-17T00:25:58.861Z,790.77
2019-01-17T00:26:03.303Z,790.77
2019-01-17T00:26:07.587Z,790.77
2019-01-17T00:26:11.874Z,790.74
2019-01-17T00:26:16.075Z,790.74
2019-01-17T00:26:20.361Z,790.75
2019-01-17T00:26:24.651Z,790.77
2019-01-17T00:26:28.947Z,790.7
2019-01-17T00:26:33.235Z,790.75
2019-01-17T00:26:37.424Z,790.75
2019-01-17T00:26:41.716Z,790.75
2019-01-17T00:26:46.000Z,790.76
2019-01-17T00:26:50.194Z,790.73
2019-01-17T00:26:54.486Z,790.73
2019-01-17T00:26:58.688Z,790.73
2019-01-17T00:27:02.881Z,790.71
2019-01-17T00:27:07.166Z,790.69
2019-01-17T00:27:11.449Z,790.69
2019-01-17T00:27:15.636Z,790.71
2019-01-17T00:27:19.829Z,790.66
2019-01-17T00:27:24.021Z,790.69
2019-01-17T00:27:28.220Z,790.71
2019-01-17T00:27:32.413Z,790.7
2019-01-17T00:27:36.706Z,790.68
2019-01-17T00:27:40.991Z,790.68
2019-01-17T00:27:45.281Z,790.68
2019-01-17T00:27:49.565Z,790.67
2019-01-17T00:27:53.894Z,790.68
2019-01-17T00:27:58.184Z,790.65
2019-01-17T00:28:02.475Z,790.66
2019-01-17T00:28:06.773Z,790.66
2019-01-17T00:28:11.084Z,790.64
2019-01-17T00:28:15.377Z,790.67
2019-01-17T00:28:19.664Z,790.7
2019-01-17T00:28:23.955Z,790.68
2019-01-17T00:28:28.244Z,790.69
2019-01-17T00:28:32.432Z,790.68
2019-01-17T00:28:36.619Z,790.58
2019-01-17T00:28:40.813Z,790.59
2019-01-17T00:28:45.100Z,790.59
2019-01-17T00:28:49.395Z,790.64
2019-01-17T00:28:53.681Z,790.64
2019-01-17T00:28:57.965Z,790.64
2019-01-17T00:29:02.402Z,790.64
2019-01-17T00:29:07.637Z,790.61
2019-01-17T00:29:11.922Z,790.56
2019-01-17T00:29:16.214Z,790.62
2019-01-17T00:29:20.504Z,790.62
2019-01-17T00:29:24.789Z,790.62
2019-01-17T00:29:28.986Z,790.62
2019-01-17T00:29:33.093Z,790.58
2019-01-17T00:29:37.381Z,790.62
2019-01-17T00:29:41.669Z,790.61
2019-01-17T00:29:45.958Z,790.55
2019-01-17T00:29:50.253Z,790.53
2019-01-17T00:29:54.545Z,790.54
2019-01-17T00:29:58.870Z,790.52
2019-01-17T00:30:03.092Z,790.54
2019-01-17T00:30:07.282Z,790.53
2019-01-17T00:30:11.569Z,790.53
2019-01-17T00:30:15.856Z,790.55
2019-01-17T00:30:20.143Z,790.56
2019-01-17T00:30:24.238Z,790.57
2019-01-17T00:30:28.430Z,790.56
2019-01-17T00:30:32.741Z,790.56
2019-01-17T00:30:37.028Z,790.53
2019-01-17T00:30:41.313Z,790.54
2019-01-17T00:30:45.599Z,790.53
2019-01-17T00:30:49.894Z,790.52
2019-01-17T00:30:54.183Z,790.5
2019-01-17T00:30:58.386Z,790.5
2019-01-17T00:31:02.827Z,790.51
2019-01-17T00:31:07.121Z,790.5
2019-01-17T00:31:11.403Z,790.53
2019-01-17T00:31:15.706Z,790.5
2019-01-17T00:31:19.998Z,790.47
2019-01-17T00:31:24.293Z,790.48
2019-01-17T00:31:28.582Z,790.48
2019-01-17T00:31:32.872Z,790.44
2019-01-17T00:31:37.161Z,790.49
2019-01-17T00:31:41.484Z,790.51
2019-01-17T00:31:45.771Z,790.49
2019-01-17T00:31:50.062Z,790.5
2019-01-17T00:31:54.259Z,790.47
2019-01-17T00:31:58.450Z,790.43
2019-01-17T00:32:02.793Z,790.44
2019-01-17T00:32:07.085Z,790.47
2019-01-17T00:32:11.372Z,790.44
2019-01-17T00:32:15.692Z,790.43
2019-01-17T00:32:19.883Z,790.48
2019-01-17T00:32:24.171Z,790.48
2019-01-17T00:32:28.469Z,790.48
2019-01-17T00:32:32.758Z,790.45
2019-01-17T00:32:37.061Z,790.47
2019-01-17T00:32:41.345Z,790.44
2019-01-17T00:32:45.639Z,790.44
2019-01-17T00:32:49.922Z,790.48
2019-01-17T00:32:54.114Z,790.41
2019-01-17T00:32:58.311Z,790.47
2019-01-17T00:33:02.605Z,790.44
2019-01-17T00:33:06.890Z,790.46
2019-01-17T00:33:11.024Z,790.45
2019-01-17T00:33:15.311Z,790.43
2019-01-17T00:33:19.604Z,790.42
2019-01-17T00:33:23.727Z,790.45
2019-01-17T00:33:27.823Z,790.45
2019-01-17T00:33:31.934Z,790.46
2019-01-17T00:33:36.219Z,790.4
2019-01-17T00:33:40.317Z,790.36
2019-01-17T00:33:44.607Z,790.35
2019-01-17T00:33:48.895Z,790.3
2019-01-17T00:33:53.188Z,790.29
2019-01-17T00:33:57.477Z,790.26
2019-01-17T00:34:01.767Z,790.3
2019-01-17T00:34:05.962Z,790.3
2019-01-17T00:34:10.259Z,790.26
2019-01-17T00:34:14.544Z,790.22
2019-01-17T00:34:18.742Z,790.2
2019-01-17T00:34:23.036Z,790.16
2019-01-17T00:34:27.336Z,790.19
2019-01-17T00:34:31.630Z,790.17
2019-01-17T00:34:35.921Z,790.17
2019-01-17T00:34:40.210Z,790.12
2019-01-17T00:34:44.395Z,790.12
2019-01-17T00:34:48.686Z,790.2
2019-01-17T00:34:52.970Z,790.23
2019-01-17T00:34:57.257Z,790.27
2019-01-17T00:35:01.633Z,790.22
2019-01-17T00:35:05.736Z,790.22
2019-01-17T00:35:10.020Z,790.18
2019-01-17T00:35:14.309Z,790.18
2019-01-17T00:35:18.403Z,790.24
2019-01-17T00:35:22.598Z,790.25
2019-01-17T00:35:26.886Z,790.25
2019-01-17T00:35:31.096Z,790.26
2019-01-17T00:35:35.388Z,790.3
2019-01-17T00:35:39.683Z,790.3
2019-01-17T00:35:43.969Z,790.3
2019-01-17T00:35:48.262Z,790.29
2019-01-17T00:35:52.555Z,790.3
2019-01-17T00:35:56.785Z,790.3
2019-01-17T00:36:01.072Z,790.27
2019-01-17T00:36:05.366Z,790.32
2019-01-17T00:36:09.660Z,790.33
2019-01-17T00:36:13.945Z,790.36
2019-01-17T00:36:18.241Z,790.38
2019-01-17T00:36:22.531Z,790.38
2019-01-17T00:36:26.829Z,790.35
2019-01-17T00:36:31.025Z,790.39
2019-01-17T00:36:35.311Z,790.37
2019-01-17T00:36:39.512Z,790.4
2019-01-17T00:36:43.796Z,790.38
2019-01-17T00:36:47.987Z,790.4
2019-01-17T00:36:52.275Z,790.42
2019-01-17T00:36:56.562Z,790.4
2019-01-17T00:37:00.853Z,790.44
2019-01-17T00:37:05.238Z,790.46
2019-01-17T00:37:09.525Z,790.46
2019-01-17T00:37:13.712Z,790.45
2019-01-17T00:37:17.905Z,790.44
2019-01-17T00:37:22.096Z,790.43
2019-01-17T00:37:26.400Z,790.5
2019-01-17T00:37:30.697Z,790.48
2019-01-17T00:37:34.987Z,790.47
2019-01-17T00:37:39.272Z,790.5
2019-01-17T00:37:43.568Z,790.49
2019-01-17T00:37:47.755Z,790.48
2019-01-17T00:37:52.048Z,790.43
2019-01-17T00:37:56.343Z,790.48
2019-01-17T00:38:00.631Z,790.44
2019-01-17T00:38:04.919Z,790.49
2019-01-17T00:38:09.206Z,790.49
2019-01-17T00:38:13.499Z,790.52
2019-01-17T00:38:17.706Z,790.53
2019-01-17T00:38:21.901Z,790.53
2019-01-17T00:38:26.202Z,790.51
2019-01-17T00:38:30.390Z,790.5
2019-01-17T00:38:34.681Z,790.49
2019-01-17T00:38:38.969Z,790.48
2019-01-17T00:38:43.157Z,790.48
2019-01-17T00:38:47.442Z,790.51
2019-01-17T00:38:51.772Z,790.5
2019-01-17T00:38:56.065Z,790.47
2019-01-17T00:39:00.354Z,790.47
2019-01-17T00:39:04.646Z,790.49
2019-01-17T00:39:08.946Z,790.5
2019-01-17T00:39:13.235Z,790.49
2019-01-17T00:39:17.529Z,790.44
2019-01-17T00:39:21.719Z,790.45
2019-01-17T00:39:26.009Z,790.44
2019-01-17T00:39:30.298Z,790.48
2019-01-17T00:39:34.583Z,790.46
2019-01-17T00:39:38.780Z,790.49
2019-01-17T00:39:43.064Z,790.52
2019-01-17T00:39:47.352Z,790.5
2019-01-17T00:39:51.538Z,790.54
2019-01-17T00:39:55.827Z,790.5
2019-01-17T00:40:00.229Z,790.5
2019-01-17T00:40:04.539Z,790.52
2019-01-17T00:40:08.725Z,790.53
2019-01-17T00:40:13.014Z,790.52
2019-01-17T00:40:17.204Z,790.52
2019-01-17T00:40:21.395Z,790.55
2019-01-17T00:40:25.680Z,790.53
2019-01-17T00:40:29.970Z,790.51
2019-01-17T00:40:34.289Z,790.51
2019-01-17T00:40:38.483Z,790.52
2019-01-17T00:40:42.767Z,790.52
2019-01-17T00:40:47.050Z,790.53
2019-01-17T00:40:51.247Z,790.56
2019-01-17T00:40:55.531Z,790.55
2019-01-17T00:40:59.833Z,790.56
2019-01-17T00:41:04.025Z,790.54
2019-01-17T00:41:08.315Z,790.55
2019-01-17T00:41:12.603Z,790.54
2019-01-17T00:41:16.891Z,790.55
2019-01-17T00:41:21.184Z,790.52
2019-01-17T00:41:25.374Z,790.55
2019-01-17T00:41:29.664Z,790.56
2019-01-17T00:41:33.950Z,790.53
2019-01-17T00:41:38.143Z,790.54
2019-01-17T00:41:42.436Z,790.59
2019-01-17T00:41:46.723Z,790.61
2019-01-17T00:41:51.010Z,790.68
2019-01-17T00:41:55.291Z,790.67
2019-01-17T00:41:59.572Z,790.66
2019-01-17T00:42:03.857Z,790.62
2019-01-17T00:42:08.142Z,790.69
2019-01-17T00:42:12.430Z,790.68
2019-01-17T00:42:16.719Z,790.75
2019-01-17T00:42:21.009Z,790.75
2019-01-17T00:42:25.295Z,790.73
2019-01-17T00:42:29.580Z,790.78
2019-01-17T00:42:33.861Z,790.77
2019-01-17T00:42:38.047Z,790.68
2019-01-17T00:42:42.339Z,790.72
2019-01-17T00:42:46.623Z,790.68
2019-01-17T00:42:50.907Z,790.66
2019-01-17T00:42:55.199Z,790.62
2019-01-17T00:42:59.489Z,790.61
2019-01-17T00:43:03.778Z,790.62
2019-01-17T00:43:08.070Z,790.61
2019-01-17T00:43:12.356Z,790.59
2019-01-17T00:43:16.558Z,790.58
2019-01-17T00:43:22.157Z,790.66
2019-01-17T00:43:26.346Z,790.64
2019-01-17T00:43:30.637Z,790.69
2019-01-17T00:43:34.928Z,790.65
2019-01-17T00:43:39.225Z,790.66
2019-01-17T00:43:43.514Z,790.68
2019-01-17T00:43:47.702Z,790.69
2019-01-17T00:43:51.901Z,790.67
2019-01-17T00:43:56.221Z,790.71
2019-01-17T00:44:00.504Z,790.72
2019-01-17T00:44:04.694Z,790.7
2019-01-17T00:44:08.982Z,790.75
2019-01-17T00:44:13.231Z,790.71
2019-01-17T00:44:17.524Z,790.73
2019-01-17T00:44:21.715Z,790.77
2019-01-17T00:44:26.008Z,790.77
2019-01-17T00:44:30.211Z,790.78
2019-01-17T00:44:34.503Z,790.75
2019-01-17T00:44:38.697Z,790.78
2019-01-17T00:44:42.991Z,790.77
2019-01-17T00:44:47.280Z,790.79
2019-01-17T00:44:51.577Z,790.78
2019-01-17T00:44:55.768Z,790.77
2019-01-17T00:44:59.960Z,790.78
2019-01-17T00:45:04.356Z,790.8
2019-01-17T00:45:08.541Z,790.8
2019-01-17T00:45:12.838Z,790.83
2019-01-17T00:45:17.133Z,790.81
2019-01-17T00:45:21.434Z,790.81
2019-01-17T00:45:25.721Z,790.82
2019-01-17T00:45:30.014Z,790.83
2019-01-17T00:45:34.300Z,790.82
2019-01-17T00:45:38.589Z,790.81
2019-01-17T00:45:42.872Z,790.83
2019-01-17T00:45:47.163Z,790.82
2019-01-17T00:45:51.352Z,790.82
2019-01-17T00:45:55.636Z,790.81
2019-01-17T00:45:59.830Z,790.83
2019-01-17T00:46:04.022Z,790.83
2019-01-17T00:46:08.310Z,790.85
2019-01-17T00:46:12.599Z,790.84
2019-01-17T00:46:16.887Z,790.85
2019-01-17T00:46:21.173Z,790.82
2019-01-17T00:46:25.460Z,790.85
2019-01-17T00:46:29.755Z,790.84
2019-01-17T00:46:34.048Z,790.86
2019-01-17T00:46:38.333Z,790.83
2019-01-17T00:46:42.621Z,790.84
2019-01-17T00:46:46.815Z,790.86
2019-01-17T00:46:51.104Z,790.86
2019-01-17T00:46:55.399Z,790.86
2019-01-17T00:46:59.691Z,790.87
2019-01-17T00:47:03.988Z,790.85
2019-01-17T00:47:08.274Z,790.85
2019-01-17T00:47:12.567Z,790.86
2019-01-17T00:47:16.865Z,790.87
2019-01-17T00:47:21.151Z,790.88
2019-01-17T00:47:25.445Z,790.84
2019-01-17T00:47:29.748Z,790.92
2019-01-17T00:47:34.043Z,790.88
2019-01-17T00:47:38.344Z,790.91
2019-01-17T00:47:42.631Z,790.92
2019-01-17T00:47:46.918Z,790.94
2019-01-17T00:47:51.209Z,790.89
2019-01-17T00:47:55.498Z,790.91
2019-01-17T00:47:59.783Z,790.9
2019-01-17T00:48:04.075Z,790.92
2019-01-17T00:48:08.262Z,790.92
2019-01-17T00:48:12.547Z,790.95
2019-01-17T00:48:16.846Z,790.96
2019-01-17T00:48:21.136Z,790.97
2019-01-17T00:48:25.424Z,790.98
2019-01-17T00:48:29.612Z,790.98
2019-01-17T00:48:33.902Z,790.98
2019-01-17T00:48:38.186Z,790.99
2019-01-17T00:48:42.467Z,791
2019-01-17T00:48:46.763Z,791
2019-01-17T00:48:50.956Z,790.96
2019-01-17T00:48:55.149Z,790.99
2019-01-17T00:48:59.444Z,791.02
2019-01-17T00:49:03.743Z,791.01
2019-01-17T00:49:08.038Z,791.04
2019-01-17T00:49:12.336Z,791.02
2019-01-17T00:49:16.528Z,791.05
2019-01-17T00:49:20.817Z,790.99
2019-01-17T00:49:25.124Z,790.97
2019-01-17T00:49:29.411Z,790.99
2019-01-17T00:49:35.036Z,791
2019-01-17T00:49:39.228Z,791.08
2019-01-17T00:49:43.518Z,791.03
2019-01-17T00:49:47.709Z,791.05
2019-01-17T00:49:51.912Z,791.06
2019-01-17T00:49:56.206Z,791.06
2019-01-17T00:50:00.541Z,791.1
2019-01-17T00:50:04.881Z,791.1
2019-01-17T00:50:09.166Z,791.08
2019-01-17T00:50:13.452Z,791.09
2019-01-17T00:50:17.739Z,791.11
2019-01-17T00:50:22.029Z,791.09
2019-01-17T00:50:26.321Z,791.1
2019-01-17T00:50:30.607Z,791.08
2019-01-17T00:50:34.893Z,791.1
2019-01-17T00:50:39.185Z,791.1
2019-01-17T00:50:43.274Z,791.16
2019-01-17T00:50:47.558Z,791.08
2019-01-17T00:50:51.847Z,791.12
2019-01-17T00:50:56.143Z,791.09
2019-01-17T00:51:00.428Z,791.11
2019-01-17T00:51:04.620Z,791.09
2019-01-17T00:51:08.905Z,791.13
2019-01-17T00:51:13.103Z,791.04
2019-01-17T00:51:17.389Z,791.06
2019-01-17T00:51:21.676Z,791.07
2019-01-17T00:51:25.964Z,791.07
2019-01-17T00:51:30.249Z,791.07
2019-01-17T00:51:34.531Z,791.15
2019-01-17T00:51:38.818Z,791.1
2019-01-17T00:51:43.126Z,791.07
2019-01-17T00:51:47.408Z,791.14
2019-01-17T00:51:51.702Z,791.09
2019-01-17T00:51:55.989Z,791.12
2019-01-17T00:52:00.321Z,791.1
2019-01-17T00:52:04.775Z,791.16
2019-01-17T00:52:09.067Z,791.19
2019-01-17T00:52:13.358Z,791.16
2019-01-17T00:52:17.648Z,791.15
2019-01-17T00:52:21.934Z,791.17
2019-01-17T00:52:26.223Z,791.15
2019-01-17T00:52:30.509Z,791.12
2019-01-17T00:52:34.795Z,791.11
2019-01-17T00:52:39.082Z,791.13
2019-01-17T00:52:43.267Z,791.17
2019-01-17T00:52:47.462Z,791.2
2019-01-17T00:52:51.744Z,791.18
2019-01-17T00:52:56.074Z,791.19
2019-01-17T00:53:00.266Z,791.18
2019-01-17T00:53:04.748Z,791.18
2019-01-17T00:53:09.034Z,791.18
2019-01-17T00:53:13.323Z,791.2
2019-01-17T00:53:17.611Z,791.22
2019-01-17T00:53:21.802Z,791.18
2019-01-17T00:53:26.093Z,791.16
2019-01-17T00:53:30.386Z,791.13
2019-01-17T00:53:34.673Z,791.17
2019-01-17T00:53:38.975Z,791.14
2019-01-17T00:53:43.162Z,791.11
2019-01-17T00:53:47.300Z,791.11